sensor_id;sensor_type;location;lat;lon;timestamp;pressure;altitude;pressure_sealevel;temperature;humidity
21803;BME280;18591;47.080;22.214;2022-11-20T00:01:27;99118.78;;;10.01;65.18
21803;BME280;18591;47.080;22.214;2022-11-20T00:03:29;99111.75;;;9.98;65.48
21803;BME280;18591;47.080;22.214;2022-11-20T00:05:32;99109.00;;;10.00;65.56
21803;BME280;18591;47.080;22.214;2022-11-20T00:07:35;99115.91;;;10.06;65.22
21803;BME280;18591;47.080;22.214;2022-11-20T00:09:37;99122.25;;;10.05;65.93
21803;BME280;18591;47.080;22.214;2022-11-20T00:11:39;99118.47;;;10.09;65.59
21803;BME280;18591;47.080;22.214;2022-11-20T00:13:42;99114.91;;;10.08;65.69
21803;BME280;18591;47.080;22.214;2022-11-20T00:15:48;99128.38;;;10.07;65.89
21803;BME280;18591;47.080;22.214;2022-11-20T00:17:50;99122.16;;;10.06;65.67
21803;BME280;18591;47.080;22.214;2022-11-20T00:19:52;99117.28;;;10.16;65.53
21803;BME280;18591;47.080;22.214;2022-11-20T00:21:54;99127.28;;;10.12;65.85
21803;BME280;18591;47.080;22.214;2022-11-20T00:23:57;99126.31;;;10.13;65.83
21803;BME280;18591;47.080;22.214;2022-11-20T00:26:04;99123.78;;;10.10;65.94
21803;BME280;18591;47.080;22.214;2022-11-20T00:28:06;99130.06;;;10.09;65.90
21803;BME280;18591;47.080;22.214;2022-11-20T00:30:08;99132.66;;;10.12;65.65
21803;BME280;18591;47.080;22.214;2022-11-20T00:32:15;99137.19;;;10.10;65.70
21803;BME280;18591;47.080;22.214;2022-11-20T00:34:17;99137.19;;;10.10;65.82
21803;BME280;18591;47.080;22.214;2022-11-20T00:36:25;99135.09;;;10.17;65.58
21803;BME280;18591;47.080;22.214;2022-11-20T00:38:27;99144.25;;;10.13;66.19
21803;BME280;18591;47.080;22.214;2022-11-20T00:40:30;99142.38;;;10.15;66.02
21803;BME280;18591;47.080;22.214;2022-11-20T00:42:32;99148.53;;;10.17;66.03
21803;BME280;18591;47.080;22.214;2022-11-20T00:44:35;99148.34;;;10.21;65.90
21803;BME280;18591;47.080;22.214;2022-11-20T00:46:38;99148.44;;;10.20;65.73
21803;BME280;18591;47.080;22.214;2022-11-20T00:48:40;99146.66;;;10.19;65.55
21803;BME280;18591;47.080;22.214;2022-11-20T00:50:42;99147.66;;;10.16;66.01
21803;BME280;18591;47.080;22.214;2022-11-20T00:52:44;99152.91;;;10.19;66.26
21803;BME280;18591;47.080;22.214;2022-11-20T00:54:46;99151.03;;;10.21;66.15
21803;BME280;18591;47.080;22.214;2022-11-20T00:56:48;99154.78;;;10.17;66.24
21803;BME280;18591;47.080;22.214;2022-11-20T00:58:51;99156.34;;;10.23;66.17
21803;BME280;18591;47.080;22.214;2022-11-20T01:00:53;99149.00;;;10.27;65.91
21803;BME280;18591;47.080;22.214;2022-11-20T01:02:55;99150.28;;;10.18;66.44
21803;BME280;18591;47.080;22.214;2022-11-20T01:04:57;99137.69;;;10.20;66.33
21803;BME280;18591;47.080;22.214;2022-11-20T01:07:03;99139.47;;;10.19;66.37
21803;BME280;18591;47.080;22.214;2022-11-20T01:09:09;99143.84;;;10.22;66.26
21803;BME280;18591;47.080;22.214;2022-11-20T01:11:14;99137.69;;;10.20;66.29
21803;BME280;18591;47.080;22.214;2022-11-20T01:13:17;99142.16;;;10.19;66.61
21803;BME280;18591;47.080;22.214;2022-11-20T01:15:39;99143.25;;;10.15;66.74
21803;BME280;18591;47.080;22.214;2022-11-20T01:17:41;99136.19;;;10.13;66.75
21803;BME280;18591;47.080;22.214;2022-11-20T01:19:43;99127.38;;;10.09;67.26
21803;BME280;18591;47.080;22.214;2022-11-20T01:21:49;99123.97;;;10.06;67.45
21803;BME280;18591;47.080;22.214;2022-11-20T01:23:51;99118.59;;;10.06;67.35
21803;BME280;18591;47.080;22.214;2022-11-20T01:25:54;99117.59;;;10.08;67.12
21803;BME280;18591;47.080;22.214;2022-11-20T01:27:56;99121.97;;;10.11;67.30
21803;BME280;18591;47.080;22.214;2022-11-20T01:29:58;99118.47;;;10.09;67.50
21803;BME280;18591;47.080;22.214;2022-11-20T01:32:02;99125.38;;;10.14;67.19
21803;BME280;18591;47.080;22.214;2022-11-20T01:34:06;99129.00;;;10.13;67.14
21803;BME280;18591;47.080;22.214;2022-11-20T01:36:10;99135.91;;;10.19;67.01
21803;BME280;18591;47.080;22.214;2022-11-20T01:38:12;99123.31;;;10.21;66.80
21803;BME280;18591;47.080;22.214;2022-11-20T01:40:14;99113.31;;;10.24;66.60
21803;BME280;18591;47.080;22.214;2022-11-20T01:42:16;99112.56;;;10.21;66.66
21803;BME280;18591;47.080;22.214;2022-11-20T01:44:58;99110.75;;;10.21;66.83
21803;BME280;18591;47.080;22.214;2022-11-20T01:47:04;99097.13;;;10.26;66.32
21803;BME280;18591;47.080;22.214;2022-11-20T01:49:17;99089.94;;;10.27;66.45
21803;BME280;18591;47.080;22.214;2022-11-20T01:51:31;99089.78;;;10.31;65.85
21803;BME280;18591;47.080;22.214;2022-11-20T01:53:36;99086.03;;;10.35;65.82
21803;BME280;18591;47.080;22.214;2022-11-20T01:55:41;99090.50;;;10.35;65.80
21803;BME280;18591;47.080;22.214;2022-11-20T01:57:46;99089.66;;;10.34;65.85
21803;BME280;18591;47.080;22.214;2022-11-20T01:59:57;99088.06;;;10.30;66.21
21803;BME280;18591;47.080;22.214;2022-11-20T02:02:01;99087.91;;;10.33;65.95
21803;BME280;18591;47.080;22.214;2022-11-20T02:04:07;99080.16;;;10.25;66.32
21803;BME280;18591;47.080;22.214;2022-11-20T02:06:16;99087.91;;;10.33;65.84
21803;BME280;18591;47.080;22.214;2022-11-20T02:08:21;99082.59;;;10.32;66.05
21803;BME280;18591;47.080;22.214;2022-11-20T02:10:27;99073.84;;;10.27;66.15
21803;BME280;18591;47.080;22.214;2022-11-20T02:12:29;99059.38;;;10.31;66.15
21803;BME280;18591;47.080;22.214;2022-11-20T02:14:50;99051.38;;;10.29;65.75
21803;BME280;18591;47.080;22.214;2022-11-20T02:16:54;99070.28;;;10.26;66.14
21803;BME280;18591;47.080;22.214;2022-11-20T02:18:59;99064.81;;;10.29;66.40
21803;BME280;18591;47.080;22.214;2022-11-20T02:21:09;99061.38;;;10.25;66.25
21803;BME280;18591;47.080;22.214;2022-11-20T02:23:39;99047.94;;;10.25;66.34
21803;BME280;18591;47.080;22.214;2022-11-20T02:25:41;99039.78;;;10.29;65.88
21803;BME280;18591;47.080;22.214;2022-11-20T02:27:45;99034.59;;;10.24;66.08
21803;BME280;18591;47.080;22.214;2022-11-20T02:29:53;99043.78;;;10.18;66.59
21803;BME280;18591;47.080;22.214;2022-11-20T02:31:58;99025.88;;;10.19;66.22
21803;BME280;18591;47.080;22.214;2022-11-20T02:34:03;98995.13;;;10.26;66.18
21803;BME280;18591;47.080;22.214;2022-11-20T02:36:07;98995.09;;;10.28;65.93
21803;BME280;18591;47.080;22.214;2022-11-20T02:38:11;98992.63;;;10.21;66.36
21803;BME280;18591;47.080;22.214;2022-11-20T02:40:14;98989.97;;;10.21;66.49
21803;BME280;18591;47.080;22.214;2022-11-20T02:42:22;98995.63;;;10.15;67.04
21803;BME280;18591;47.080;22.214;2022-11-20T02:44:24;98983.00;;;10.17;67.14
21803;BME280;18591;47.080;22.214;2022-11-20T02:46:26;98980.91;;;10.24;66.42
21803;BME280;18591;47.080;22.214;2022-11-20T02:48:29;98978.22;;;10.24;66.13
21803;BME280;18591;47.080;22.214;2022-11-20T02:50:37;98979.22;;;10.21;66.55
21803;BME280;18591;47.080;22.214;2022-11-20T02:52:40;98974.72;;;10.22;66.30
21803;BME280;18591;47.080;22.214;2022-11-20T02:54:42;98984.69;;;10.20;66.44
21803;BME280;18591;47.080;22.214;2022-11-20T02:56:44;98992.94;;;10.15;66.30
21803;BME280;18591;47.080;22.214;2022-11-20T02:58:47;98988.47;;;10.14;66.24
21803;BME280;18591;47.080;22.214;2022-11-20T03:00:49;98983.88;;;10.18;66.31
21803;BME280;18591;47.080;22.214;2022-11-20T03:02:51;98976.63;;;10.20;66.23
21803;BME280;18591;47.080;22.214;2022-11-20T03:04:53;98977.03;;;10.11;66.46
21803;BME280;18591;47.080;22.214;2022-11-20T03:06:55;98984.06;;;10.13;66.34
21803;BME280;18591;47.080;22.214;2022-11-20T03:08:58;98987.34;;;10.20;66.21
21803;BME280;18591;47.080;22.214;2022-11-20T03:11:07;98986.69;;;10.15;66.36
21803;BME280;18591;47.080;22.214;2022-11-20T03:13:10;98990.44;;;10.11;66.95
21803;BME280;18591;47.080;22.214;2022-11-20T03:15:12;98978.84;;;10.10;67.17
21803;BME280;18591;47.080;22.214;2022-11-20T03:17:16;98975.66;;;10.21;66.70
21803;BME280;18591;47.080;22.214;2022-11-20T03:19:19;98971.00;;;10.24;66.54
21803;BME280;18591;47.080;22.214;2022-11-20T03:21:21;98964.06;;;10.20;66.24
21803;BME280;18591;47.080;22.214;2022-11-20T03:23:26;98956.16;;;10.17;66.51
21803;BME280;18591;47.080;22.214;2022-11-20T03:25:30;98953.47;;;10.17;66.48
21803;BME280;18591;47.080;22.214;2022-11-20T03:27:36;98955.34;;;10.15;66.26
21803;BME280;18591;47.080;22.214;2022-11-20T03:29:38;98948.22;;;10.14;66.25
21803;BME280;18591;47.080;22.214;2022-11-20T03:31:43;98952.53;;;10.18;65.92
21803;BME280;18591;47.080;22.214;2022-11-20T03:33:45;98958.03;;;10.15;66.20
21803;BME280;18591;47.080;22.214;2022-11-20T03:35:47;98962.25;;;10.21;65.67
21803;BME280;18591;47.080;22.214;2022-11-20T03:37:49;98957.75;;;10.21;65.63
21803;BME280;18591;47.080;22.214;2022-11-20T03:39:51;98959.50;;;10.22;65.66
21803;BME280;18591;47.080;22.214;2022-11-20T03:41:53;98967.63;;;10.21;65.77
21803;BME280;18591;47.080;22.214;2022-11-20T03:44:00;98961.53;;;10.17;65.93
21803;BME280;18591;47.080;22.214;2022-11-20T03:46:03;98969.34;;;10.22;65.66
21803;BME280;18591;47.080;22.214;2022-11-20T03:48:05;98971.16;;;10.21;65.63
21803;BME280;18591;47.080;22.214;2022-11-20T03:50:10;98972.13;;;10.20;65.62
21803;BME280;18591;47.080;22.214;2022-11-20T03:52:14;98955.16;;;10.20;65.59
21803;BME280;18591;47.080;22.214;2022-11-20T03:54:16;98947.16;;;10.18;65.62
21803;BME280;18591;47.080;22.214;2022-11-20T03:56:23;98954.53;;;10.13;65.25
21803;BME280;18591;47.080;22.214;2022-11-20T03:58:26;98960.72;;;10.15;65.27
21803;BME280;18591;47.080;22.214;2022-11-20T04:00:28;98951.88;;;10.13;65.37
21803;BME280;18591;47.080;22.214;2022-11-20T04:02:30;98942.94;;;10.13;65.02
21803;BME280;18591;47.080;22.214;2022-11-20T04:04:33;98928.25;;;10.01;64.86
21803;BME280;18591;47.080;22.214;2022-11-20T04:06:36;98929.13;;;10.01;65.02
21803;BME280;18591;47.080;22.214;2022-11-20T04:08:40;98943.28;;;10.05;65.33
21803;BME280;18591;47.080;22.214;2022-11-20T04:10:42;98937.19;;;10.01;64.95
21803;BME280;18591;47.080;22.214;2022-11-20T04:12:45;98941.69;;;10.01;64.67
21803;BME280;18591;47.080;22.214;2022-11-20T04:14:47;98945.31;;;10.00;64.85
21803;BME280;18591;47.080;22.214;2022-11-20T04:16:49;98940.09;;;9.97;64.85
21803;BME280;18591;47.080;22.214;2022-11-20T04:18:52;98935.44;;;10.00;64.94
21803;BME280;18591;47.080;22.214;2022-11-20T04:20:56;98936.50;;;9.96;64.44
21803;BME280;18591;47.080;22.214;2022-11-20T04:22:59;98935.59;;;9.97;64.71
21803;BME280;18591;47.080;22.214;2022-11-20T04:25:01;98921.97;;;10.02;64.56
21803;BME280;18591;47.080;22.214;2022-11-20T04:27:03;98919.63;;;9.94;64.65
21803;BME280;18591;47.080;22.214;2022-11-20T04:29:05;98920.66;;;9.92;64.26
21803;BME280;18591;47.080;22.214;2022-11-20T04:31:16;98917.22;;;9.88;64.69
21803;BME280;18591;47.080;22.214;2022-11-20T04:33:19;98915.03;;;9.96;65.05
21803;BME280;18591;47.080;22.214;2022-11-20T04:35:21;98918.47;;;10.00;64.87
21803;BME280;18591;47.080;22.214;2022-11-20T04:37:26;98917.66;;;9.98;65.34
21803;BME280;18591;47.080;22.214;2022-11-20T04:39:28;98928.25;;;10.01;65.32
21803;BME280;18591;47.080;22.214;2022-11-20T04:41:35;98918.53;;;9.98;65.08
21803;BME280;18591;47.080;22.214;2022-11-20T04:43:37;98924.78;;;9.99;65.21
21803;BME280;18591;47.080;22.214;2022-11-20T04:45:40;98922.84;;;10.02;65.38
21803;BME280;18591;47.080;22.214;2022-11-20T04:47:42;98914.63;;;10.06;65.47
21803;BME280;18591;47.080;22.214;2022-11-20T04:49:45;98915.44;;;10.08;65.62
21803;BME280;18591;47.080;22.214;2022-11-20T04:51:47;98909.41;;;10.02;66.01
21803;BME280;18591;47.080;22.214;2022-11-20T04:53:49;98909.28;;;10.06;66.07
21803;BME280;18591;47.080;22.214;2022-11-20T04:55:59;98906.59;;;10.06;66.25
21803;BME280;18591;47.080;22.214;2022-11-20T04:58:02;98917.25;;;10.07;66.17
21803;BME280;18591;47.080;22.214;2022-11-20T05:00:04;98914.28;;;10.13;66.05
21803;BME280;18591;47.080;22.214;2022-11-20T05:02:06;98921.63;;;10.10;66.41
21803;BME280;18591;47.080;22.214;2022-11-20T05:04:13;98921.81;;;10.05;66.89
21803;BME280;18591;47.080;22.214;2022-11-20T05:06:17;98929.00;;;10.05;66.62
21803;BME280;18591;47.080;22.214;2022-11-20T05:08:20;98922.63;;;10.07;66.52
21803;BME280;18591;47.080;22.214;2022-11-20T05:10:22;98921.03;;;10.03;66.83
21803;BME280;18591;47.080;22.214;2022-11-20T05:12:24;98925.38;;;10.06;66.55
21803;BME280;18591;47.080;22.214;2022-11-20T05:14:29;98920.81;;;10.08;66.77
21803;BME280;18591;47.080;22.214;2022-11-20T05:16:34;98927.03;;;10.08;66.75
21803;BME280;18591;47.080;22.214;2022-11-20T05:18:38;98924.31;;;10.10;66.88
21803;BME280;18591;47.080;22.214;2022-11-20T05:20:40;98922.53;;;10.09;66.72
21803;BME280;18591;47.080;22.214;2022-11-20T05:22:42;98915.28;;;10.11;66.71
21803;BME280;18591;47.080;22.214;2022-11-20T05:24:44;98925.75;;;10.17;66.18
21803;BME280;18591;47.080;22.214;2022-11-20T05:26:47;98919.72;;;10.12;66.53
21803;BME280;18591;47.080;22.214;2022-11-20T05:28:50;98917.31;;;10.06;66.85
21803;BME280;18591;47.080;22.214;2022-11-20T05:30:53;98920.97;;;10.05;66.62
21803;BME280;18591;47.080;22.214;2022-11-20T05:32:54;98926.38;;;10.03;66.87
21803;BME280;18591;47.080;22.214;2022-11-20T05:34:57;98927.03;;;10.08;66.52
21803;BME280;18591;47.080;22.214;2022-11-20T05:36:59;98927.03;;;10.08;66.79
21803;BME280;18591;47.080;22.214;2022-11-20T05:39:01;98918.94;;;10.10;66.56
21803;BME280;18591;47.080;22.214;2022-11-20T05:41:08;98922.63;;;10.07;66.64
21803;BME280;18591;47.080;22.214;2022-11-20T05:43:14;98917.38;;;10.04;66.90
21803;BME280;18591;47.080;22.214;2022-11-20T05:45:16;98919.19;;;10.03;66.90
21803;BME280;18591;47.080;22.214;2022-11-20T05:47:18;98915.59;;;10.05;66.93
21803;BME280;18591;47.080;22.214;2022-11-20T05:49:20;98920.00;;;10.06;66.95
21803;BME280;18591;47.080;22.214;2022-11-20T05:51:23;98918.28;;;10.05;66.68
21803;BME280;18591;47.080;22.214;2022-11-20T05:53:26;98922.63;;;10.07;66.66
21803;BME280;18591;47.080;22.214;2022-11-20T05:55:28;98924.41;;;10.07;66.54
21803;BME280;18591;47.080;22.214;2022-11-20T05:57:31;98924.50;;;10.05;66.58
21803;BME280;18591;47.080;22.214;2022-11-20T05:59:33;98929.88;;;10.05;66.98
21803;BME280;18591;47.080;22.214;2022-11-20T06:01:36;98933.22;;;10.10;66.60
21803;BME280;18591;47.080;22.214;2022-11-20T06:03:38;98935.91;;;10.10;66.77
21803;BME280;18591;47.080;22.214;2022-11-20T06:05:41;98931.59;;;10.06;66.74
21803;BME280;18591;47.080;22.214;2022-11-20T06:07:45;98936.97;;;10.06;66.53
21803;BME280;18591;47.080;22.214;2022-11-20T06:09:47;98943.34;;;10.03;66.79
21803;BME280;18591;47.080;22.214;2022-11-20T06:11:49;98945.22;;;10.01;66.91
21803;BME280;18591;47.080;22.214;2022-11-20T06:13:51;98943.34;;;10.03;66.87
21803;BME280;18591;47.080;22.214;2022-11-20T06:15:54;98945.16;;;10.03;66.67
21803;BME280;18591;47.080;22.214;2022-11-20T06:17:56;98943.19;;;10.07;66.84
21803;BME280;18591;47.080;22.214;2022-11-20T06:19:58;98944.16;;;10.06;66.46
21803;BME280;18591;47.080;22.214;2022-11-20T06:22:00;98955.84;;;10.05;66.52
21803;BME280;18591;47.080;22.214;2022-11-20T06:24:03;98947.81;;;10.05;66.62
21803;BME280;18591;47.080;22.214;2022-11-20T06:26:14;98949.72;;;10.01;66.48
21803;BME280;18591;47.080;22.214;2022-11-20T06:28:16;98947.81;;;10.05;66.54
21803;BME280;18591;47.080;22.214;2022-11-20T06:30:18;98945.84;;;10.08;66.46
21803;BME280;18591;47.080;22.214;2022-11-20T06:32:21;98945.13;;;10.05;66.47
21803;BME280;18591;47.080;22.214;2022-11-20T06:34:23;98959.31;;;10.07;66.25
21803;BME280;18591;47.080;22.214;2022-11-20T06:36:25;98956.56;;;10.08;66.02
21803;BME280;18591;47.080;22.214;2022-11-20T06:38:27;98964.63;;;10.08;66.45
21803;BME280;18591;47.080;22.214;2022-11-20T06:40:30;98959.03;;;10.13;66.05
21803;BME280;18591;47.080;22.214;2022-11-20T06:42:32;98956.38;;;10.13;66.09
21803;BME280;18591;47.080;22.214;2022-11-20T06:44:34;98953.69;;;10.13;65.94
21803;BME280;18591;47.080;22.214;2022-11-20T06:46:36;98955.84;;;10.05;66.02
21803;BME280;18591;47.080;22.214;2022-11-20T06:48:39;98957.44;;;10.09;66.03
21803;BME280;18591;47.080;22.214;2022-11-20T06:50:59;98963.00;;;10.04;66.48
21803;BME280;18591;47.080;22.214;2022-11-20T06:53:04;98954.84;;;10.07;66.47
21803;BME280;18591;47.080;22.214;2022-11-20T06:55:07;98951.91;;;10.12;66.15
21803;BME280;18591;47.080;22.214;2022-11-20T06:57:09;98948.31;;;10.13;66.27
21803;BME280;18591;47.080;22.214;2022-11-20T06:59:12;98953.34;;;10.20;65.92
21803;BME280;18591;47.080;22.214;2022-11-20T07:01:14;98954.41;;;10.16;65.85
21803;BME280;18591;47.080;22.214;2022-11-20T07:03:17;98951.66;;;10.18;66.00
21803;BME280;18591;47.080;22.214;2022-11-20T07:05:19;98958.19;;;10.12;65.85
21803;BME280;18591;47.080;22.214;2022-11-20T07:07:22;98956.38;;;10.13;65.88
21803;BME280;18591;47.080;22.214;2022-11-20T07:09:24;98949.22;;;10.12;65.93
21803;BME280;18591;47.080;22.214;2022-11-20T07:11:26;98946.69;;;10.09;66.15
21803;BME280;18591;47.080;22.214;2022-11-20T07:13:29;98944.00;;;10.09;66.02
21803;BME280;18591;47.080;22.214;2022-11-20T07:15:31;98939.44;;;10.11;66.17
21803;BME280;18591;47.080;22.214;2022-11-20T07:17:33;98945.78;;;10.10;65.91
21803;BME280;18591;47.080;22.214;2022-11-20T07:19:35;98935.09;;;10.08;66.41
21803;BME280;18591;47.080;22.214;2022-11-20T07:21:37;98942.44;;;10.05;66.34
21803;BME280;18591;47.080;22.214;2022-11-20T07:23:40;98948.56;;;10.07;66.36
21803;BME280;18591;47.080;22.214;2022-11-20T07:25:44;98947.34;;;10.14;65.69
21803;BME280;18591;47.080;22.214;2022-11-20T07:27:49;98950.34;;;10.08;66.18
21803;BME280;18591;47.080;22.214;2022-11-20T07:29:51;98934.16;;;10.09;66.14
21803;BME280;18591;47.080;22.214;2022-11-20T07:31:53;98930.69;;;10.07;66.15
21803;BME280;18591;47.080;22.214;2022-11-20T07:33:57;98945.03;;;10.06;65.93
21803;BME280;18591;47.080;22.214;2022-11-20T07:35:59;98945.38;;;9.98;66.09
21803;BME280;18591;47.080;22.214;2022-11-20T07:38:02;98951.34;;;10.05;66.44
21803;BME280;18591;47.080;22.214;2022-11-20T07:40:04;98946.84;;;10.06;65.96
21803;BME280;18591;47.080;22.214;2022-11-20T07:42:09;98951.41;;;10.03;65.86
21803;BME280;18591;47.080;22.214;2022-11-20T07:44:14;98960.56;;;9.99;66.13
21803;BME280;18591;47.080;22.214;2022-11-20T07:46:16;98950.81;;;9.97;66.34
21803;BME280;18591;47.080;22.214;2022-11-20T07:48:18;98964.75;;;10.05;66.55
21803;BME280;18591;47.080;22.214;2022-11-20T07:50:20;98972.16;;;10.00;66.29
21803;BME280;18591;47.080;22.214;2022-11-20T07:52:22;98979.19;;;10.02;66.14
21803;BME280;18591;47.080;22.214;2022-11-20T07:54:25;98971.88;;;10.06;65.97
21803;BME280;18591;47.080;22.214;2022-11-20T07:56:27;98981.69;;;10.07;66.02
21803;BME280;18591;47.080;22.214;2022-11-20T07:58:30;98988.91;;;10.05;65.60
21803;BME280;18591;47.080;22.214;2022-11-20T08:00:34;98983.56;;;10.05;66.03
21803;BME280;18591;47.080;22.214;2022-11-20T08:02:40;98972.88;;;10.03;65.96
21803;BME280;18591;47.080;22.214;2022-11-20T08:04:42;98968.47;;;10.02;65.62
21803;BME280;18591;47.080;22.214;2022-11-20T08:06:51;98969.53;;;9.98;66.13
21803;BME280;18591;47.080;22.214;2022-11-20T08:08:54;98984.69;;;9.99;66.03
21803;BME280;18591;47.080;22.214;2022-11-20T08:10:58;98980.41;;;9.95;66.42
21803;BME280;18591;47.080;22.214;2022-11-20T08:13:21;98969.66;;;9.95;65.88
21803;BME280;18591;47.080;22.214;2022-11-20T08:15:48;98966.50;;;9.86;66.10
21803;BME280;18591;47.080;22.214;2022-11-20T08:17:50;98976.31;;;9.87;65.85
21803;BME280;18591;47.080;22.214;2022-11-20T08:20:12;98986.38;;;9.81;66.24
21803;BME280;18591;47.080;22.214;2022-11-20T08:22:15;99008.53;;;9.87;66.08
21803;BME280;18591;47.080;22.214;2022-11-20T08:24:17;98992.47;;;9.85;65.87
21803;BME280;18591;47.080;22.214;2022-11-20T08:26:21;98992.47;;;9.85;66.12
21803;BME280;18591;47.080;22.214;2022-11-20T08:28:23;98992.44;;;9.87;66.01
21803;BME280;18591;47.080;22.214;2022-11-20T08:30:26;98992.28;;;9.90;66.12
21803;BME280;18591;47.080;22.214;2022-11-20T08:32:28;99001.19;;;9.90;65.91
21803;BME280;18591;47.080;22.214;2022-11-20T08:34:31;99008.28;;;9.91;66.09
21803;BME280;18591;47.080;22.214;2022-11-20T08:36:34;99014.75;;;9.87;66.03
21803;BME280;18591;47.080;22.214;2022-11-20T08:38:36;99013.75;;;9.90;66.41
21803;BME280;18591;47.080;22.214;2022-11-20T08:40:38;99008.09;;;9.96;66.09
21803;BME280;18591;47.080;22.214;2022-11-20T08:42:48;99005.03;;;9.85;66.18
21803;BME280;18591;47.080;22.214;2022-11-20T08:44:50;98993.19;;;9.89;66.16
21803;BME280;18591;47.080;22.214;2022-11-20T08:46:52;98991.31;;;9.91;66.32
21803;BME280;18591;47.080;22.214;2022-11-20T08:48:55;98986.97;;;9.88;66.55
21803;BME280;18591;47.080;22.214;2022-11-20T08:50:58;98989.47;;;9.93;66.54
21803;BME280;18591;47.080;22.214;2022-11-20T08:53:04;98995.69;;;9.93;66.00
21803;BME280;18591;47.080;22.214;2022-11-20T08:55:08;99001.06;;;9.93;66.16
21803;BME280;18591;47.080;22.214;2022-11-20T08:57:10;98996.50;;;9.95;66.02
21803;BME280;18591;47.080;22.214;2022-11-20T08:59:12;99001.56;;;10.01;66.28
21803;BME280;18591;47.080;22.214;2022-11-20T09:01:35;99001.72;;;9.98;65.94
21803;BME280;18591;47.080;22.214;2022-11-20T09:03:37;99008.72;;;10.02;66.07
21803;BME280;18591;47.080;22.214;2022-11-20T09:05:39;99008.84;;;9.99;65.97
21803;BME280;18591;47.080;22.214;2022-11-20T09:07:41;98997.38;;;9.96;66.39
21803;BME280;18591;47.080;22.214;2022-11-20T09:09:44;98999.03;;;9.98;66.09
21803;BME280;18591;47.080;22.214;2022-11-20T09:11:47;98998.19;;;9.98;66.38
21803;BME280;18591;47.080;22.214;2022-11-20T09:13:49;99005.84;;;9.87;66.53
21803;BME280;18591;47.080;22.214;2022-11-20T09:15:56;99005.16;;;9.81;66.61
21803;BME280;18591;47.080;22.214;2022-11-20T09:18:00;99004.84;;;9.89;66.84
21803;BME280;18591;47.080;22.214;2022-11-20T09:20:03;99005.56;;;9.93;66.79
21803;BME280;18591;47.080;22.214;2022-11-20T09:22:05;98993.75;;;9.97;66.59
21803;BME280;18591;47.080;22.214;2022-11-20T09:24:08;98985.63;;;9.98;66.96
21803;BME280;18591;47.080;22.214;2022-11-20T09:26:13;98994.53;;;9.99;66.82
21803;BME280;18591;47.080;22.214;2022-11-20T09:28:16;98999.84;;;10.00;66.81
21803;BME280;18591;47.080;22.214;2022-11-20T09:30:20;99004.06;;;10.06;66.57
21803;BME280;18591;47.080;22.214;2022-11-20T09:32:22;99005.03;;;10.05;66.92
21803;BME280;18591;47.080;22.214;2022-11-20T09:34:24;98995.88;;;10.09;66.98
21803;BME280;18591;47.080;22.214;2022-11-20T09:36:26;98993.84;;;10.14;66.79
21803;BME280;18591;47.080;22.214;2022-11-20T09:38:29;99006.25;;;10.17;66.96
21803;BME280;18591;47.080;22.214;2022-11-20T09:40:35;99010.56;;;10.21;66.82
21803;BME280;18591;47.080;22.214;2022-11-20T09:42:45;99006.25;;;10.17;66.93
21803;BME280;18591;47.080;22.214;2022-11-20T09:45:16;99001.69;;;10.19;67.27
21803;BME280;18591;47.080;22.214;2022-11-20T09:52:31;99021.97;;;10.26;67.73
21803;BME280;18591;47.080;22.214;2022-11-20T09:54:37;99016.13;;;10.37;67.46
21803;BME280;18591;47.080;22.214;2022-11-20T09:56:45;99014.25;;;10.39;67.16
21803;BME280;18591;47.080;22.214;2022-11-20T09:58:52;99020.59;;;10.38;67.36
21803;BME280;18591;47.080;22.214;2022-11-20T10:01:03;99016.09;;;10.38;67.07
21803;BME280;18591;47.080;22.214;2022-11-20T10:03:18;99020.34;;;10.42;67.46
21803;BME280;18591;47.080;22.214;2022-11-20T10:05:33;99024.13;;;10.38;67.68
21803;BME280;18591;47.080;22.214;2022-11-20T10:10:00;99022.63;;;10.52;67.27
21803;BME280;18591;47.080;22.214;2022-11-20T10:19:04;99024.16;;;10.57;67.72
21803;BME280;18591;47.080;22.214;2022-11-20T10:21:35;99024.97;;;10.59;67.43
21803;BME280;18591;47.080;22.214;2022-11-20T10:34:25;99016.69;;;10.64;67.58
21803;BME280;18591;47.080;22.214;2022-11-20T10:36:40;99013.19;;;10.62;68.12
21803;BME280;18591;47.080;22.214;2022-11-20T10:38:52;99003.81;;;10.71;68.02
21803;BME280;18591;47.080;22.214;2022-11-20T10:41:01;99006.16;;;10.78;67.51
21803;BME280;18591;47.080;22.214;2022-11-20T10:43:33;99004.63;;;10.73;68.54
21803;BME280;18591;47.080;22.214;2022-11-20T10:45:48;99009.84;;;10.76;68.37
21803;BME280;18591;47.080;22.214;2022-11-20T10:47:54;99001.94;;;10.73;68.14
21803;BME280;18591;47.080;22.214;2022-11-20T10:50:02;99002.97;;;10.70;68.14
21803;BME280;18591;47.080;22.214;2022-11-20T10:54:40;98997.72;;;10.86;68.03
21803;BME280;18591;47.080;22.214;2022-11-20T10:56:50;99008.41;;;10.87;67.64
21803;BME280;18591;47.080;22.214;2022-11-20T11:01:16;98993.31;;;10.85;67.70
21803;BME280;18591;47.080;22.214;2022-11-20T11:03:20;98993.59;;;10.98;67.49
21803;BME280;18591;47.080;22.214;2022-11-20T11:05:41;98983.13;;;10.92;68.22
21803;BME280;18591;47.080;22.214;2022-11-20T11:07:45;98982.91;;;10.96;68.14
21803;BME280;18591;47.080;22.214;2022-11-20T11:10:00;98972.88;;;11.00;68.23
21803;BME280;18591;47.080;22.214;2022-11-20T11:12:06;98971.78;;;11.04;67.95
21803;BME280;18591;47.080;22.214;2022-11-20T11:17:46;98964.88;;;10.98;68.83
21803;BME280;18591;47.080;22.214;2022-11-20T11:22:16;98963.25;;;11.13;67.79
21803;BME280;18591;47.080;22.214;2022-11-20T11:24:22;98961.66;;;11.09;67.30
21803;BME280;18591;47.080;22.214;2022-11-20T11:27:01;98978.09;;;11.03;68.25
21803;BME280;18591;47.080;22.214;2022-11-20T11:29:17;98974.94;;;11.12;67.42
21803;BME280;18591;47.080;22.214;2022-11-20T11:31:32;98971.50;;;11.10;67.10